sensor_id;sensor_type;location;lat;lon;timestamp;P1;durP1;ratioP1;P2;durP2;ratioP2
7199;SDS011;3641;49.082;8.200;2023-04-16T00:02:01;20.30;;;13.73;;
7199;SDS011;3641;49.082;8.200;2023-04-16T00:04:28;19.88;;;14.18;;
7199;SDS011;3641;49.082;8.200;2023-04-16T00:06:54;19.85;;;14.30;;
7199;SDS011;3641;49.082;8.200;2023-04-16T00:09:22;21.35;;;14.80;;
7199;SDS011;3641;49.082;8.200;2023-04-16T00:11:48;21.35;;;13.88;;
7199;SDS011;3641;49.082;8.200;2023-04-16T00:14:15;21.75;;;14.60;;
7199;SDS011;3641;49.082;8.200;2023-04-16T00:16:41;19.83;;;14.13;;
7199;SDS011;3641;49.082;8.200;2023-04-16T00:19:07;20.30;;;14.65;;
7199;SDS011;3641;49.082;8.200;2023-04-16T00:21:34;22.52;;;14.90;;
7199;SDS011;3641;49.082;8.200;2023-04-16T00:24:01;20.63;;;14.07;;
7199;SDS011;3641;49.082;8.200;2023-04-16T00:26:28;21.70;;;14.93;;
7199;SDS011;3641;49.082;8.200;2023-04-16T00:28:55;21.33;;;14.68;;
7199;SDS011;3641;49.082;8.200;2023-04-16T00:31:25;22.20;;;15.00;;
7199;SDS011;3641;49.082;8.200;2023-04-16T00:33:53;23.52;;;14.68;;
7199;SDS011;3641;49.082;8.200;2023-04-16T00:36:19;20.13;;;14.05;;
7199;SDS011;3641;49.082;8.200;2023-04-16T00:38:45;20.88;;;13.70;;
7199;SDS011;3641;49.082;8.200;2023-04-16T00:41:12;21.27;;;14.25;;
7199;SDS011;3641;49.082;8.200;2023-04-16T00:43:40;18.65;;;12.88;;
7199;SDS011;3641;49.082;8.200;2023-04-16T00:46:06;19.58;;;13.20;;
7199;SDS011;3641;49.082;8.200;2023-04-16T00:48:33;19.10;;;13.38;;
7199;SDS011;3641;49.082;8.200;2023-04-16T00:51:01;21.05;;;14.05;;
7199;SDS011;3641;49.082;8.200;2023-04-16T00:53:29;19.88;;;14.02;;
7199;SDS011;3641;49.082;8.200;2023-04-16T00:55:56;25.60;;;14.48;;
7199;SDS011;3641;49.082;8.200;2023-04-16T00:58:22;20.33;;;13.60;;
7199;SDS011;3641;49.082;8.200;2023-04-16T01:00:51;19.65;;;13.70;;
7199;SDS011;3641;49.082;8.200;2023-04-16T01:03:18;20.75;;;13.85;;
7199;SDS011;3641;49.082;8.200;2023-04-16T01:05:44;18.67;;;13.75;;
7199;SDS011;3641;49.082;8.200;2023-04-16T01:08:14;19.15;;;13.40;;
7199;SDS011;3641;49.082;8.200;2023-04-16T01:10:41;20.17;;;13.93;;
7199;SDS011;3641;49.082;8.200;2023-04-16T01:13:08;20.40;;;13.50;;
7199;SDS011;3641;49.082;8.200;2023-04-16T01:15:35;20.83;;;13.95;;
7199;SDS011;3641;49.082;8.200;2023-04-16T01:18:11;18.95;;;12.93;;
7199;SDS011;3641;49.082;8.200;2023-04-16T01:20:40;22.00;;;14.32;;
7199;SDS011;3641;49.082;8.200;2023-04-16T01:23:06;20.42;;;13.75;;
7199;SDS011;3641;49.082;8.200;2023-04-16T01:25:33;20.38;;;14.43;;
7199;SDS011;3641;49.082;8.200;2023-04-16T01:27:59;22.88;;;14.82;;
7199;SDS011;3641;49.082;8.200;2023-04-16T01:30:26;21.98;;;13.73;;
7199;SDS011;3641;49.082;8.200;2023-04-16T01:32:52;20.27;;;13.77;;
7199;SDS011;3641;49.082;8.200;2023-04-16T01:35:19;20.58;;;13.52;;
7199;SDS011;3641;49.082;8.200;2023-04-16T01:37:47;22.02;;;14.18;;
7199;SDS011;3641;49.082;8.200;2023-04-16T01:40:14;24.02;;;14.23;;
7199;SDS011;3641;49.082;8.200;2023-04-16T01:42:41;20.60;;;13.55;;
7199;SDS011;3641;49.082;8.200;2023-04-16T01:45:08;19.80;;;13.48;;
7199;SDS011;3641;49.082;8.200;2023-04-16T01:47:35;19.45;;;13.30;;
7199;SDS011;3641;49.082;8.200;2023-04-16T01:50:01;20.88;;;13.82;;
7199;SDS011;3641;49.082;8.200;2023-04-16T01:52:28;19.10;;;13.07;;
7199;SDS011;3641;49.082;8.200;2023-04-16T01:54:56;20.05;;;12.75;;
7199;SDS011;3641;49.082;8.200;2023-04-16T01:57:22;19.45;;;12.95;;
7199;SDS011;3641;49.082;8.200;2023-04-16T01:59:49;18.02;;;12.50;;
7199;SDS011;3641;49.082;8.200;2023-04-16T02:02:15;20.17;;;12.98;;
7199;SDS011;3641;49.082;8.200;2023-04-16T02:04:43;20.67;;;12.65;;
7199;SDS011;3641;49.082;8.200;2023-04-16T02:07:10;18.85;;;12.13;;
7199;SDS011;3641;49.082;8.200;2023-04-16T02:09:37;19.52;;;12.25;;
7199;SDS011;3641;49.082;8.200;2023-04-16T02:12:06;18.52;;;12.30;;
7199;SDS011;3641;49.082;8.200;2023-04-16T02:14:35;18.48;;;12.10;;
7199;SDS011;3641;49.082;8.200;2023-04-16T02:17:01;17.90;;;11.75;;
7199;SDS011;3641;49.082;8.200;2023-04-16T02:19:28;20.25;;;12.23;;
7199;SDS011;3641;49.082;8.200;2023-04-16T02:21:55;17.20;;;10.75;;
7199;SDS011;3641;49.082;8.200;2023-04-16T02:24:21;16.77;;;10.75;;
7199;SDS011;3641;49.082;8.200;2023-04-16T02:26:48;17.00;;;10.77;;
7199;SDS011;3641;49.082;8.200;2023-04-16T02:29:15;17.42;;;10.98;;
7199;SDS011;3641;49.082;8.200;2023-04-16T02:31:42;16.60;;;10.57;;
7199;SDS011;3641;49.082;8.200;2023-04-16T02:34:08;16.60;;;9.52;;
7199;SDS011;3641;49.082;8.200;2023-04-16T02:36:35;18.67;;;10.95;;
7199;SDS011;3641;49.082;8.200;2023-04-16T02:39:01;16.92;;;10.40;;
7199;SDS011;3641;49.082;8.200;2023-04-16T02:41:28;15.88;;;10.20;;
7199;SDS011;3641;49.082;8.200;2023-04-16T02:43:55;17.05;;;10.20;;
7199;SDS011;3641;49.082;8.200;2023-04-16T02:46:23;18.75;;;10.32;;
7199;SDS011;3641;49.082;8.200;2023-04-16T02:48:49;17.67;;;10.85;;
7199;SDS011;3641;49.082;8.200;2023-04-16T02:51:16;16.60;;;9.52;;
7199;SDS011;3641;49.082;8.200;2023-04-16T02:53:42;17.38;;;10.10;;
7199;SDS011;3641;49.082;8.200;2023-04-16T02:56:10;15.73;;;9.98;;
7199;SDS011;3641;49.082;8.200;2023-04-16T02:58:37;15.88;;;10.18;;
7199;SDS011;3641;49.082;8.200;2023-04-16T03:01:03;18.92;;;10.15;;
7199;SDS011;3641;49.082;8.200;2023-04-16T03:03:31;16.58;;;9.75;;
7199;SDS011;3641;49.082;8.200;2023-04-16T03:05:58;15.52;;;9.52;;
7199;SDS011;3641;49.082;8.200;2023-04-16T03:08:24;14.10;;;9.15;;
7199;SDS011;3641;49.082;8.200;2023-04-16T03:10:51;15.73;;;9.95;;
7199;SDS011;3641;49.082;8.200;2023-04-16T03:13:18;16.05;;;9.50;;
7199;SDS011;3641;49.082;8.200;2023-04-16T03:15:46;15.10;;;9.23;;
7199;SDS011;3641;49.082;8.200;2023-04-16T03:18:13;15.30;;;9.43;;
7199;SDS011;3641;49.082;8.200;2023-04-16T03:20:41;16.08;;;10.02;;
7199;SDS011;3641;49.082;8.200;2023-04-16T03:23:08;17.80;;;10.32;;
7199;SDS011;3641;49.082;8.200;2023-04-16T03:25:34;15.90;;;9.65;;
7199;SDS011;3641;49.082;8.200;2023-04-16T03:28:01;15.82;;;9.55;;
7199;SDS011;3641;49.082;8.200;2023-04-16T03:30:28;16.15;;;9.63;;
7199;SDS011;3641;49.082;8.200;2023-04-16T03:32:54;16.42;;;9.15;;
7199;SDS011;3641;49.082;8.200;2023-04-16T03:35:20;16.95;;;10.10;;
7199;SDS011;3641;49.082;8.200;2023-04-16T03:37:48;16.92;;;10.35;;
7199;SDS011;3641;49.082;8.200;2023-04-16T03:40:15;14.77;;;9.35;;
7199;SDS011;3641;49.082;8.200;2023-04-16T03:42:42;16.60;;;10.02;;
7199;SDS011;3641;49.082;8.200;2023-04-16T03:45:08;17.50;;;10.15;;
7199;SDS011;3641;49.082;8.200;2023-04-16T03:47:35;16.13;;;9.48;;
7199;SDS011;3641;49.082;8.200;2023-04-16T03:50:02;16.63;;;10.43;;
7199;SDS011;3641;49.082;8.200;2023-04-16T03:52:29;18.05;;;10.25;;
7199;SDS011;3641;49.082;8.200;2023-04-16T03:54:56;18.00;;;10.50;;
7199;SDS011;3641;49.082;8.200;2023-04-16T03:57:23;19.27;;;11.02;;
7199;SDS011;3641;49.082;8.200;2023-04-16T03:59:49;15.27;;;9.75;;
7199;SDS011;3641;49.082;8.200;2023-04-16T04:02:16;16.38;;;9.60;;
7199;SDS011;3641;49.082;8.200;2023-04-16T04:04:42;18.98;;;11.18;;
7199;SDS011;3641;49.082;8.200;2023-04-16T04:07:09;16.52;;;9.80;;
7199;SDS011;3641;49.082;8.200;2023-04-16T04:09:35;18.33;;;10.80;;
7199;SDS011;3641;49.082;8.200;2023-04-16T04:12:03;19.63;;;10.25;;
7199;SDS011;3641;49.082;8.200;2023-04-16T04:14:30;19.25;;;10.80;;
7199;SDS011;3641;49.082;8.200;2023-04-16T04:16:56;17.05;;;10.73;;
7199;SDS011;3641;49.082;8.200;2023-04-16T04:19:22;17.90;;;10.82;;
7199;SDS011;3641;49.082;8.200;2023-04-16T04:21:49;17.38;;;10.27;;
7199;SDS011;3641;49.082;8.200;2023-04-16T04:24:15;17.85;;;10.55;;
7199;SDS011;3641;49.082;8.200;2023-04-16T04:26:42;16.98;;;10.32;;
7199;SDS011;3641;49.082;8.200;2023-04-16T04:29:09;17.30;;;10.68;;
7199;SDS011;3641;49.082;8.200;2023-04-16T04:31:36;17.40;;;11.00;;
7199;SDS011;3641;49.082;8.200;2023-04-16T04:34:03;16.33;;;10.57;;
7199;SDS011;3641;49.082;8.200;2023-04-16T04:36:29;18.58;;;11.45;;
7199;SDS011;3641;49.082;8.200;2023-04-16T04:38:56;18.40;;;10.75;;
7199;SDS011;3641;49.082;8.200;2023-04-16T04:41:22;21.20;;;11.15;;
7199;SDS011;3641;49.082;8.200;2023-04-16T04:43:50;18.48;;;10.73;;
7199;SDS011;3641;49.082;8.200;2023-04-16T04:46:18;21.45;;;10.85;;
7199;SDS011;3641;49.082;8.200;2023-04-16T04:48:45;17.02;;;10.27;;
7199;SDS011;3641;49.082;8.200;2023-04-16T04:51:11;18.52;;;11.38;;
7199;SDS011;3641;49.082;8.200;2023-04-16T04:53:38;20.52;;;10.77;;
7199;SDS011;3641;49.082;8.200;2023-04-16T04:56:04;16.83;;;10.75;;
7199;SDS011;3641;49.082;8.200;2023-04-16T04:58:31;18.60;;;11.23;;
7199;SDS011;3641;49.082;8.200;2023-04-16T05:00:58;21.10;;;11.57;;
7199;SDS011;3641;49.082;8.200;2023-04-16T05:03:26;19.85;;;11.00;;
7199;SDS011;3641;49.082;8.200;2023-04-16T05:05:52;17.65;;;10.57;;
7199;SDS011;3641;49.082;8.200;2023-04-16T05:08:18;19.70;;;10.65;;
7199;SDS011;3641;49.082;8.200;2023-04-16T05:10:45;20.40;;;11.70;;
7199;SDS011;3641;49.082;8.200;2023-04-16T05:13:12;18.67;;;11.15;;
7199;SDS011;3641;49.082;8.200;2023-04-16T05:15:39;19.55;;;11.40;;
7199;SDS011;3641;49.082;8.200;2023-04-16T05:18:05;20.95;;;11.60;;
7199;SDS011;3641;49.082;8.200;2023-04-16T05:20:33;19.10;;;11.52;;
7199;SDS011;3641;49.082;8.200;2023-04-16T05:23:00;22.05;;;12.00;;
7199;SDS011;3641;49.082;8.200;2023-04-16T05:25:27;19.23;;;11.63;;
7199;SDS011;3641;49.082;8.200;2023-04-16T05:27:53;19.35;;;11.15;;
7199;SDS011;3641;49.082;8.200;2023-04-16T05:30:20;20.92;;;12.07;;
7199;SDS011;3641;49.082;8.200;2023-04-16T05:32:46;22.08;;;12.52;;
7199;SDS011;3641;49.082;8.200;2023-04-16T05:35:13;20.67;;;11.52;;
7199;SDS011;3641;49.082;8.200;2023-04-16T05:37:41;21.40;;;12.82;;
7199;SDS011;3641;49.082;8.200;2023-04-16T05:40:07;20.88;;;12.30;;
7199;SDS011;3641;49.082;8.200;2023-04-16T05:42:34;18.35;;;11.27;;
7199;SDS011;3641;49.082;8.200;2023-04-16T05:45:01;20.33;;;12.02;;
7199;SDS011;3641;49.082;8.200;2023-04-16T05:47:28;21.13;;;11.82;;
7199;SDS011;3641;49.082;8.200;2023-04-16T05:49:55;21.23;;;11.95;;
7199;SDS011;3641;49.082;8.200;2023-04-16T05:52:21;21.75;;;11.82;;
7199;SDS011;3641;49.082;8.200;2023-04-16T05:54:49;19.45;;;10.80;;
7199;SDS011;3641;49.082;8.200;2023-04-16T05:57:15;21.23;;;11.70;;
7199;SDS011;3641;49.082;8.200;2023-04-16T05:59:42;20.02;;;11.27;;
7199;SDS011;3641;49.082;8.200;2023-04-16T06:02:08;20.88;;;11.35;;
7199;SDS011;3641;49.082;8.200;2023-04-16T06:04:35;21.35;;;11.52;;
7199;SDS011;3641;49.082;8.200;2023-04-16T06:07:01;19.73;;;11.02;;
7199;SDS011;3641;49.082;8.200;2023-04-16T06:09:28;21.38;;;11.88;;
7199;SDS011;3641;49.082;8.200;2023-04-16T06:11:56;22.70;;;12.18;;
7199;SDS011;3641;49.082;8.200;2023-04-16T06:14:23;20.27;;;11.25;;
7199;SDS011;3641;49.082;8.200;2023-04-16T06:16:49;21.85;;;11.63;;
7199;SDS011;3641;49.082;8.200;2023-04-16T06:19:16;21.67;;;10.95;;
7199;SDS011;3641;49.082;8.200;2023-04-16T06:21:42;19.88;;;11.38;;
7199;SDS011;3641;49.082;8.200;2023-04-16T06:24:09;22.48;;;11.73;;
7199;SDS011;3641;49.082;8.200;2023-04-16T06:26:35;21.40;;;12.15;;
7199;SDS011;3641;49.082;8.200;2023-04-16T06:29:03;19.55;;;10.45;;
7199;SDS011;3641;49.082;8.200;2023-04-16T06:31:29;18.38;;;10.52;;
7199;SDS011;3641;49.082;8.200;2023-04-16T06:33:56;19.17;;;10.45;;
7199;SDS011;3641;49.082;8.200;2023-04-16T06:36:22;18.58;;;11.07;;
7199;SDS011;3641;49.082;8.200;2023-04-16T06:38:51;19.95;;;10.52;;
7199;SDS011;3641;49.082;8.200;2023-04-16T06:41:17;20.10;;;10.80;;
7199;SDS011;3641;49.082;8.200;2023-04-16T06:43:43;20.70;;;10.32;;
7199;SDS011;3641;49.082;8.200;2023-04-16T06:46:12;18.67;;;10.07;;
7199;SDS011;3641;49.082;8.200;2023-04-16T06:48:38;17.50;;;10.15;;
7199;SDS011;3641;49.082;8.200;2023-04-16T06:51:05;17.77;;;9.77;;
7199;SDS011;3641;49.082;8.200;2023-04-16T06:53:31;16.23;;;9.65;;
7199;SDS011;3641;49.082;8.200;2023-04-16T06:55:58;15.80;;;8.88;;
7199;SDS011;3641;49.082;8.200;2023-04-16T06:58:24;15.52;;;8.80;;
7199;SDS011;3641;49.082;8.200;2023-04-16T07:00:51;15.00;;;8.50;;
7199;SDS011;3641;49.082;8.200;2023-04-16T07:03:19;15.63;;;8.90;;
7199;SDS011;3641;49.082;8.200;2023-04-16T07:05:45;16.42;;;8.65;;
7199;SDS011;3641;49.082;8.200;2023-04-16T07:08:12;15.13;;;8.48;;
7199;SDS011;3641;49.082;8.200;2023-04-16T07:10:38;14.95;;;8.50;;
7199;SDS011;3641;49.082;8.200;2023-04-16T07:13:04;15.43;;;9.55;;
7199;SDS011;3641;49.082;8.200;2023-04-16T07:15:31;13.90;;;7.78;;
7199;SDS011;3641;49.082;8.200;2023-04-16T07:17:57;14.25;;;7.97;;
7199;SDS011;3641;49.082;8.200;2023-04-16T07:20:25;14.00;;;7.70;;
7199;SDS011;3641;49.082;8.200;2023-04-16T07:22:52;12.88;;;7.43;;
7199;SDS011;3641;49.082;8.200;2023-04-16T07:25:19;14.93;;;8.85;;
7199;SDS011;3641;49.082;8.200;2023-04-16T07:27:45;13.75;;;7.68;;
7199;SDS011;3641;49.082;8.200;2023-04-16T07:30:11;13.77;;;7.60;;
7199;SDS011;3641;49.082;8.200;2023-04-16T07:32:38;13.18;;;7.40;;
7199;SDS011;3641;49.082;8.200;2023-04-16T07:35:05;13.55;;;8.20;;
7199;SDS011;3641;49.082;8.200;2023-04-16T07:37:33;13.52;;;7.45;;
7199;SDS011;3641;49.082;8.200;2023-04-16T07:40:00;14.15;;;8.10;;
7199;SDS011;3641;49.082;8.200;2023-04-16T07:42:26;15.13;;;7.95;;
7199;SDS011;3641;49.082;8.200;2023-04-16T07:44:53;12.82;;;7.85;;
7199;SDS011;3641;49.082;8.200;2023-04-16T07:47:20;12.00;;;7.85;;
7199;SDS011;3641;49.082;8.200;2023-04-16T07:49:47;14.13;;;8.25;;
7199;SDS011;3641;49.082;8.200;2023-04-16T07:52:14;14.68;;;8.18;;
7199;SDS011;3641;49.082;8.200;2023-04-16T07:54:42;13.15;;;7.35;;
7199;SDS011;3641;49.082;8.200;2023-04-16T07:57:08;14.75;;;8.40;;
7199;SDS011;3641;49.082;8.200;2023-04-16T07:59:35;15.93;;;9.07;;
7199;SDS011;3641;49.082;8.200;2023-04-16T08:02:02;12.50;;;7.20;;
7199;SDS011;3641;49.082;8.200;2023-04-16T08:04:30;13.57;;;8.02;;
7199;SDS011;3641;49.082;8.200;2023-04-16T08:06:56;13.10;;;7.07;;
7199;SDS011;3641;49.082;8.200;2023-04-16T08:09:25;14.98;;;7.70;;
7199;SDS011;3641;49.082;8.200;2023-04-16T08:11:53;13.57;;;7.65;;
7199;SDS011;3641;49.082;8.200;2023-04-16T08:14:20;13.65;;;7.85;;
7199;SDS011;3641;49.082;8.200;2023-04-16T08:16:46;14.68;;;8.18;;
7199;SDS011;3641;49.082;8.200;2023-04-16T08:19:13;14.40;;;8.02;;
7199;SDS011;3641;49.082;8.200;2023-04-16T08:21:39;14.55;;;7.43;;
7199;SDS011;3641;49.082;8.200;2023-04-16T08:24:06;13.75;;;7.60;;
7199;SDS011;3641;49.082;8.200;2023-04-16T08:26:32;15.60;;;8.55;;
7199;SDS011;3641;49.082;8.200;2023-04-16T08:29:00;15.63;;;7.85;;
7199;SDS011;3641;49.082;8.200;2023-04-16T08:31:27;16.27;;;8.20;;
7199;SDS011;3641;49.082;8.200;2023-04-16T08:33:53;16.33;;;9.05;;
7199;SDS011;3641;49.082;8.200;2023-04-16T08:36:20;16.05;;;9.13;;
7199;SDS011;3641;49.082;8.200;2023-04-16T08:38:46;15.40;;;8.20;;
7199;SDS011;3641;49.082;8.200;2023-04-16T08:41:13;17.25;;;9.27;;
7199;SDS011;3641;49.082;8.200;2023-04-16T08:43:41;16.45;;;9.32;;
7199;SDS011;3641;49.082;8.200;2023-04-16T08:46:11;16.88;;;9.18;;
7199;SDS011;3641;49.082;8.200;2023-04-16T08:48:38;18.48;;;9.35;;
7199;SDS011;3641;49.082;8.200;2023-04-16T08:51:08;15.52;;;8.52;;
7199;SDS011;3641;49.082;8.200;2023-04-16T08:53:40;15.00;;;8.32;;
7199;SDS011;3641;49.082;8.200;2023-04-16T08:56:13;14.98;;;8.43;;
7199;SDS011;3641;49.082;8.200;2023-04-16T08:58:41;16.67;;;8.65;;
7199;SDS011;3641;49.082;8.200;2023-04-16T09:01:08;15.45;;;8.88;;
7199;SDS011;3641;49.082;8.200;2023-04-16T09:03:37;14.85;;;8.38;;
7199;SDS011;3641;49.082;8.200;2023-04-16T09:06:04;14.75;;;8.73;;
7199;SDS011;3641;49.082;8.200;2023-04-16T09:08:32;16.63;;;8.27;;
7199;SDS011;3641;49.082;8.200;2023-04-16T09:11:00;14.25;;;8.40;;
7199;SDS011;3641;49.082;8.200;2023-04-16T09:13:27;15.25;;;8.57;;
7199;SDS011;3641;49.082;8.200;2023-04-16T09:15:53;14.48;;;8.20;;
7199;SDS011;3641;49.082;8.200;2023-04-16T09:18:21;16.25;;;8.32;;
7199;SDS011;3641;49.082;8.200;2023-04-16T09:20:49;15.48;;;8.57;;
7199;SDS011;3641;49.082;8.200;2023-04-16T09:23:16;16.27;;;8.82;;
7199;SDS011;3641;49.082;8.200;2023-04-16T09:25:43;14.90;;;8.18;;
7199;SDS011;3641;49.082;8.200;2023-04-16T09:28:10;13.43;;;8.30;;
7199;SDS011;3641;49.082;8.200;2023-04-16T09:30:36;14.80;;;8.20;;
7199;SDS011;3641;49.082;8.200;2023-04-16T09:33:12;14.00;;;7.75;;
7199;SDS011;3641;49.082;8.200;2023-04-16T09:35:44;15.50;;;8.50;;
7199;SDS011;3641;49.082;8.200;2023-04-16T09:38:13;15.88;;;8.20;;
7199;SDS011;3641;49.082;8.200;2023-04-16T09:40:39;15.82;;;8.00;;
7199;SDS011;3641;49.082;8.200;2023-04-16T09:43:08;14.55;;;8.75;;
7199;SDS011;3641;49.082;8.200;2023-04-16T09:45:44;14.82;;;8.02;;
7199;SDS011;3641;49.082;8.200;2023-04-16T09:48:13;17.42;;;9.10;;
7199;SDS011;3641;49.082;8.200;2023-04-16T09:50:43;14.77;;;8.95;;
7199;SDS011;3641;49.082;8.200;2023-04-16T09:53:21;16.20;;;8.38;;
7199;SDS011;3641;49.082;8.200;2023-04-16T09:55:49;13.27;;;8.05;;
7199;SDS011;3641;49.082;8.200;2023-04-16T09:58:17;16.20;;;8.40;;
7199;SDS011;3641;49.082;8.200;2023-04-16T10:00:44;14.95;;;7.90;;
7199;SDS011;3641;49.082;8.200;2023-04-16T10:03:10;13.43;;;7.80;;
7199;SDS011;3641;49.082;8.200;2023-04-16T10:05:37;15.82;;;9.43;;
7199;SDS011;3641;49.082;8.200;2023-04-16T10:08:09;15.85;;;9.15;;
7199;SDS011;3641;49.082;8.200;2023-04-16T10:10:38;14.48;;;8.57;;
7199;SDS011;3641;49.082;8.200;2023-04-16T10:13:05;13.60;;;8.48;;
7199;SDS011;3641;49.082;8.200;2023-04-16T10:15:32;16.48;;;9.48;;
7199;SDS011;3641;49.082;8.200;2023-04-16T10:17:58;16.30;;;9.35;;
7199;SDS011;3641;49.082;8.200;2023-04-16T10:20:25;14.18;;;8.80;;
7199;SDS011;3641;49.082;8.200;2023-04-16T10:22:52;12.63;;;7.80;;
7199;SDS011;3641;49.082;8.200;2023-04-16T10:25:19;12.68;;;8.20;;
7199;SDS011;3641;49.082;8.200;2023-04-16T10:27:47;13.10;;;7.75;;
7199;SDS011;3641;49.082;8.200;2023-04-16T10:30:15;13.10;;;7.53;;
7199;SDS011;3641;49.082;8.200;2023-04-16T10:32:42;12.90;;;8.10;;
7199;SDS011;3641;49.082;8.200;2023-04-16T10:35:13;13.90;;;7.95;;
7199;SDS011;3641;49.082;8.200;2023-04-16T10:37:40;14.52;;;7.45;;
7199;SDS011;3641;49.082;8.200;2023-04-16T10:40:20;14.50;;;8.15;;
7199;SDS011;3641;49.082;8.200;2023-04-16T10:42:53;13.88;;;7.70;;
7199;SDS011;3641;49.082;8.200;2023-04-16T10:45:28;15.77;;;8.13;;
7199;SDS011;3641;49.082;8.200;2023-04-16T10:47:56;14.02;;;8.50;;
7199;SDS011;3641;49.082;8.200;2023-04-16T10:50:23;14.40;;;7.75;;
7199;SDS011;3641;49.082;8.200;2023-04-16T10:53:02;14.75;;;8.38;;
7199;SDS011;3641;49.082;8.200;2023-04-16T10:55:54;12.60;;;7.03;;
7199;SDS011;3641;49.082;8.200;2023-04-16T10:58:29;12.25;;;6.60;;
7199;SDS011;3641;49.082;8.200;2023-04-16T11:00:58;10.68;;;6.28;;
7199;SDS011;3641;49.082;8.200;2023-04-16T11:03:25;13.00;;;6.82;;
7199;SDS011;3641;49.082;8.200;2023-04-16T11:06:08;10.88;;;6.50;;
7199;SDS011;3641;49.082;8.200;2023-04-16T11:08:35;11.93;;;6.90;;
7199;SDS011;3641;49.082;8.200;2023-04-16T11:11:03;10.75;;;6.60;;
7199;SDS011;3641;49.082;8.200;2023-04-16T11:13:31;13.25;;;7.35;;
7199;SDS011;3641;49.082;8.200;2023-04-16T11:16:00;14.73;;;7.50;;
7199;SDS011;3641;49.082;8.200;2023-04-16T11:18:26;11.45;;;6.93;;
7199;SDS011;3641;49.082;8.200;2023-04-16T11:20:53;12.48;;;7.15;;
7199;SDS011;3641;49.082;8.200;2023-04-16T11:23:19;15.13;;;8.75;;
7199;SDS011;3641;49.082;8.200;2023-04-16T11:25:46;14.85;;;8.00;;
7199;SDS011;3641;49.082;8.200;2023-04-16T11:28:15;12.13;;;7.22;;
7199;SDS011;3641;49.082;8.200;2023-04-16T11:30:43;11.10;;;7.03;;
7199;SDS011;3641;49.082;8.200;2023-04-16T11:33:10;12.25;;;7.10;;
7199;SDS011;3641;49.082;8.200;2023-04-16T11:35:37;11.77;;;7.47;;
7199;SDS011;3641;49.082;8.200;2023-04-16T11:38:05;13.70;;;7.63;;
7199;SDS011;3641;49.082;8.200;2023-04-16T11:40:31;11.25;;;7.28;;
7199;SDS011;3641;49.082;8.200;2023-04-16T11:43:00;12.70;;;7.75;;
7199;SDS011;3641;49.082;8.200;2023-04-16T11:45:27;11.45;;;7.28;;
7199;SDS011;3641;49.082;8.200;2023-04-16T11:47:55;12.13;;;6.72;;
7199;SDS011;3641;49.082;8.200;2023-04-16T11:50:22;11.15;;;6.53;;
7199;SDS011;3641;49.082;8.200;2023-04-16T11:52:50;12.20;;;7.15;;
7199;SDS011;3641;49.082;8.200;2023-04-16T11:55:19;11.40;;;6.85;;
7199;SDS011;3641;49.082;8.200;2023-04-16T11:57:46;11.68;;;7.63;;
7199;SDS011;3641;49.082;8.200;2023-04-16T12:00:13;12.20;;;7.28;;
7199;SDS011;3641;49.082;8.200;2023-04-16T12:02:40;12.85;;;6.72;;
7199;SDS011;3641;49.082;8.200;2023-04-16T12:07:55;10.60;;;6.15;;
7199;SDS011;3641;49.082;8.200;2023-04-16T12:10:22;13.50;;;6.85;;
7199;SDS011;3641;49.082;8.200;2023-04-16T12:12:49;10.25;;;6.25;;
7199;SDS011;3641;49.082;8.200;2023-04-16T12:15:16;12.35;;;6.95;;
7199;SDS011;3641;49.082;8.200;2023-04-16T12:17:42;10.88;;;6.45;;
7199;SDS011;3641;49.082;8.200;2023-04-16T12:20:09;12.00;;;6.70;;
7199;SDS011;3641;49.082;8.200;2023-04-16T12:22:38;13.05;;;6.82;;
7199;SDS011;3641;49.082;8.200;2023-04-16T12:25:06;12.40;;;7.25;;
7199;SDS011;3641;49.082;8.200;2023-04-16T12:27:39;11.43;;;6.60;;
7199;SDS011;3641;49.082;8.200;2023-04-16T12:30:10;11.93;;;7.28;;
7199;SDS011;3641;49.082;8.200;2023-04-16T12:32:38;11.85;;;7.00;;
7199;SDS011;3641;49.082;8.200;2023-04-16T12:35:05;11.98;;;7.32;;
7199;SDS011;3641;49.082;8.200;2023-04-16T12:37:33;12.10;;;6.75;;
7199;SDS011;3641;49.082;8.200;2023-04-16T12:40:02;11.77;;;6.60;;
7199;SDS011;3641;49.082;8.200;2023-04-16T12:42:29;9.98;;;6.20;;
7199;SDS011;3641;49.082;8.200;2023-04-16T12:44:59;10.43;;;6.00;;
7199;SDS011;3641;49.082;8.200;2023-04-16T12:47:26;10.52;;;6.50;;
7199;SDS011;3641;49.082;8.200;2023-04-16T12:49:53;11.38;;;6.07;;
7199;SDS011;3641;49.082;8.200;2023-04-16T12:52:20;10.43;;;6.32;;
7199;SDS011;3641;49.082;8.200;2023-04-16T12:54:46;10.40;;;6.32;;
7199;SDS011;3641;49.082;8.200;2023-04-16T12:57:14;10.45;;;6.25;;
7199;SDS011;3641;49.082;8.200;2023-04-16T12:59:41;10.32;;;6.10;;
7199;SDS011;3641;49.082;8.200;2023-04-16T13:02:07;9.82;;;5.68;;
7199;SDS011;3641;49.082;8.200;2023-04-16T13:04:34;11.25;;;6.32;;
7199;SDS011;3641;49.082;8.200;2023-04-16T13:07:00;11.18;;;5.82;;
7199;SDS011;3641;49.082;8.200;2023-04-16T13:09:26;10.27;;;5.88;;
7199;SDS011;3641;49.082;8.200;2023-04-16T13:11:53;10.13;;;6.00;;
7199;SDS011;3641;49.082;8.200;2023-04-16T13:14:21;11.45;;;5.88;;
7199;SDS011;3641;49.082;8.200;2023-04-16T13:16:47;9.40;;;6.07;;
7199;SDS011;3641;49.082;8.200;2023-04-16T13:19:14;9.80;;;6.03;;
7199;SDS011;3641;49.082;8.200;2023-04-16T13:21:43;11.32;;;6.10;;
7199;SDS011;3641;49.082;8.200;2023-04-16T13:24:09;10.02;;;6.00;;
7199;SDS011;3641;49.082;8.200;2023-04-16T13:26:36;12.27;;;6.53;;
7199;SDS011;3641;49.082;8.200;2023-04-16T13:29:02;11.55;;;6.22;;
7199;SDS011;3641;49.082;8.200;2023-04-16T13:31:30;10.90;;;6.00;;
7199;SDS011;3641;49.082;8.200;2023-04-16T13:33:56;12.45;;;7.32;;
7199;SDS011;3641;49.082;8.200;2023-04-16T13:36:23;11.32;;;6.40;;
7199;SDS011;3641;49.082;8.200;2023-04-16T13:38:49;13.88;;;7.88;;
7199;SDS011;3641;49.082;8.200;2023-04-16T13:41:16;13.18;;;8.05;;
7199;SDS011;3641;49.082;8.200;2023-04-16T13:43:42;13.13;;;7.78;;
7199;SDS011;3641;49.082;8.200;2023-04-16T13:46:09;14.70;;;8.23;;
7199;SDS011;3641;49.082;8.200;2023-04-16T13:48:38;14.50;;;8.40;;
7199;SDS011;3641;49.082;8.200;2023-04-16T13:51:04;12.40;;;7.95;;
7199;SDS011;3641;49.082;8.200;2023-04-16T13:53:32;14.55;;;8.70;;
7199;SDS011;3641;49.082;8.200;2023-04-16T13:55:58;14.15;;;8.65;;
7199;SDS011;3641;49.082;8.200;2023-04-16T13:58:27;17.50;;;9.93;;
7199;SDS011;3641;49.082;8.200;2023-04-16T14:00:54;19.92;;;10.15;;
7199;SDS011;3641;49.082;8.200;2023-04-16T14:03:20;19.13;;;9.90;;
7199;SDS011;3641;49.082;8.200;2023-04-16T14:05:48;17.30;;;10.88;;
7199;SDS011;3641;49.082;8.200;2023-04-16T14:08:15;17.45;;;10.02;;
7199;SDS011;3641;49.082;8.200;2023-04-16T14:10:41;18.35;;;10.88;;
7199;SDS011;3641;49.082;8.200;2023-04-16T14:13:08;21.38;;;11.50;;
7199;SDS011;3641;49.082;8.200;2023-04-16T14:15:36;19.60;;;10.55;;
7199;SDS011;3641;49.082;8.200;2023-04-16T14:18:02;20.10;;;11.00;;
7199;SDS011;3641;49.082;8.200;2023-04-16T14:20:29;18.13;;;11.02;;
7199;SDS011;3641;49.082;8.200;2023-04-16T14:22:57;18.70;;;10.48;;
7199;SDS011;3641;49.082;8.200;2023-04-16T14:25:23;22.08;;;11.18;;
7199;SDS011;3641;49.082;8.200;2023-04-16T14:27:50;19.17;;;11.48;;
7199;SDS011;3641;49.082;8.200;2023-04-16T14:30:16;20.08;;;11.63;;
7199;SDS011;3641;49.082;8.200;2023-04-16T14:32:43;20.85;;;11.75;;
7199;SDS011;3641;49.082;8.200;2023-04-16T14:35:09;18.63;;;11.02;;
7199;SDS011;3641;49.082;8.200;2023-04-16T14:37:36;22.23;;;11.75;;
7199;SDS011;3641;49.082;8.200;2023-04-16T14:40:04;18.27;;;10.88;;
7199;SDS011;3641;49.082;8.200;2023-04-16T14:42:32;24.77;;;12.90;;
7199;SDS011;3641;49.082;8.200;2023-04-16T14:45:00;20.92;;;12.18;;
7199;SDS011;3641;49.082;8.200;2023-04-16T14:47:27;20.00;;;10.73;;
7199;SDS011;3641;49.082;8.200;2023-04-16T14:49:53;21.73;;;11.85;;
7199;SDS011;3641;49.082;8.200;2023-04-16T14:52:20;22.70;;;12.70;;
7199;SDS011;3641;49.082;8.200;2023-04-16T14:54:46;24.00;;;13.98;;
7199;SDS011;3641;49.082;8.200;2023-04-16T14:57:14;22.85;;;13.85;;
7199;SDS011;3641;49.082;8.200;2023-04-16T14:59:41;26.88;;;14.45;;